createdAt,value
2023-03-31T00:00:59.783Z,82.92
2023-03-31T00:01:59.756Z,82.82
2023-03-31T00:02:59.803Z,82.82
2023-03-31T00:03:59.919Z,83.13
2023-03-31T00:04:59.897Z,83.13
2023-03-31T00:05:59.647Z,83.03
2023-03-31T00:06:59.624Z,83.33
2023-03-31T00:07:59.594Z,83.44
2023-03-31T00:08:59.566Z,83.13
2023-03-31T00:10:16.039Z,82.92
2023-03-31T00:10:59.509Z,82.82
2023-03-31T00:11:59.484Z,82.82
2023-03-31T00:12:59.475Z,83.13
2023-03-31T00:13:59.431Z,83.88
2023-03-31T00:14:59.411Z,83.98
2023-03-31T00:15:59.427Z,83.37
2023-03-31T00:16:59.530Z,84.09
2023-03-31T00:17:59.400Z,83.98
2023-03-31T00:18:59.291Z,83.58
2023-03-31T00:19:59.263Z,83.88
2023-03-31T00:20:59.991Z,84.09
2023-03-31T00:21:59.212Z,83.17
2023-03-31T00:22:59.191Z,83.27
2023-03-31T00:23:59.165Z,82.76
2023-03-31T00:24:59.124Z,82.86
2023-03-31T00:25:59.110Z,83.17
2023-03-31T00:26:59.081Z,82.96
2023-03-31T00:27:59.074Z,82.35
2023-03-31T00:28:59.038Z,81.90
2023-03-31T00:29:58.993Z,81.84
2023-03-31T00:30:58.973Z,82.71
2023-03-31T00:31:59.017Z,82.82
2023-03-31T00:32:58.959Z,82.76
2023-03-31T00:33:58.906Z,81.70
2023-03-31T00:34:58.852Z,81.90
2023-03-31T00:35:58.864Z,81.38
2023-03-31T00:36:58.798Z,81.79
2023-03-31T00:37:58.768Z,81.49
2023-03-31T00:38:58.742Z,81.38
2023-03-31T00:39:58.714Z,81.63
2023-03-31T00:40:58.691Z,81.49
2023-03-31T00:41:58.674Z,81.79
2023-03-31T00:42:58.630Z,82.82
2023-03-31T00:43:58.609Z,82.76
2023-03-31T00:44:58.580Z,81.70
2023-03-31T00:45:58.601Z,81.29
2023-03-31T00:46:58.521Z,82.00
2023-03-31T00:47:58.552Z,82.10
2023-03-31T00:48:58.466Z,81.90
2023-03-31T00:49:58.438Z,81.59
2023-03-31T00:50:58.422Z,81.70
2023-03-31T00:51:58.389Z,81.38
2023-03-31T00:52:58.361Z,81.18
2023-03-31T00:53:58.330Z,81.90
2023-03-31T00:54:58.303Z,81.18
2023-03-31T00:55:58.275Z,81.59
2023-03-31T00:56:58.280Z,81.59
2023-03-31T00:57:58.224Z,81.79
2023-03-31T00:58:58.193Z,82.00
2023-03-31T00:59:58.172Z,82.31
2023-03-31T01:00:58.168Z,82.10
2023-03-31T01:01:58.116Z,82.31
2023-03-31T01:02:58.221Z,82.62
2023-03-31T01:03:58.128Z,82.92
2023-03-31T01:04:58.031Z,82.82
2023-03-31T01:05:58.016Z,83.03
2023-03-31T01:06:57.978Z,81.90
2023-03-31T01:07:57.951Z,82.10
2023-03-31T01:08:57.927Z,82.71
2023-03-31T01:09:57.897Z,82.92
2023-03-31T01:10:57.884Z,82.92
2023-03-31T01:11:57.841Z,82.86
2023-03-31T01:12:57.819Z,82.71
2023-03-31T01:13:57.793Z,83.06
2023-03-31T01:14:57.756Z,83.44
2023-03-31T01:15:57.732Z,83.47
2023-03-31T01:16:57.790Z,83.37
2023-03-31T01:17:57.884Z,83.47
2023-03-31T01:18:57.728Z,83.98
2023-03-31T01:19:57.648Z,83.98
2023-03-31T01:20:57.595Z,83.78
2023-03-31T01:21:57.573Z,83.88
2023-03-31T01:22:57.548Z,83.47
2023-03-31T01:23:57.516Z,83.47
2023-03-31T01:24:57.486Z,83.06
2023-03-31T01:25:57.460Z,83.17
2023-03-31T01:26:57.431Z,83.37
2023-03-31T01:27:57.410Z,83.37
2023-03-31T01:28:57.377Z,83.47
2023-03-31T01:29:57.351Z,83.27
2023-03-31T01:30:57.342Z,83.17
2023-03-31T01:31:57.301Z,83.37
2023-03-31T01:32:57.304Z,83.68
2023-03-31T01:33:57.251Z,83.98
2023-03-31T01:34:57.214Z,83.88
2023-03-31T01:35:57.274Z,84.29
2023-03-31T01:36:57.159Z,85.63
2023-03-31T01:37:57.133Z,85.93
2023-03-31T01:38:57.104Z,85.46
2023-03-31T01:39:57.078Z,85.36
2023-03-31T01:40:57.056Z,84.23
2023-03-31T01:41:57.024Z,83.72
2023-03-31T01:42:56.992Z,83.78
2023-03-31T01:43:56.976Z,83.61
2023-03-31T01:44:56.941Z,83.47
2023-03-31T01:45:56.940Z,83.68
2023-03-31T01:46:56.886Z,83.06
2023-03-31T01:47:56.897Z,82.96
2023-03-31T01:48:56.832Z,82.76
2023-03-31T01:49:56.813Z,83.06
2023-03-31T01:50:56.775Z,82.76
2023-03-31T01:51:56.802Z,82.96
2023-03-31T01:52:56.722Z,82.86
2023-03-31T01:53:56.697Z,83.58
2023-03-31T01:54:56.671Z,83.98
2023-03-31T01:55:56.643Z,84.09
2023-03-31T01:56:56.630Z,83.98
2023-03-31T01:57:56.588Z,84.09
2023-03-31T01:58:56.562Z,83.68
2023-03-31T01:59:56.532Z,83.47
2023-03-31T02:00:56.503Z,83.88
2023-03-31T02:01:56.553Z,84.50
2023-03-31T02:02:56.498Z,84.09
2023-03-31T02:03:56.580Z,83.61
2023-03-31T02:04:56.394Z,83.98
2023-03-31T02:05:56.373Z,84.19
2023-03-31T02:06:56.336Z,85.11
2023-03-31T02:07:56.343Z,86.14
2023-03-31T02:08:56.289Z,85.83
2023-03-31T02:09:56.261Z,85.15
2023-03-31T02:10:56.235Z,85.25
2023-03-31T02:11:56.211Z,86.18
2023-03-31T02:12:56.182Z,85.72
2023-03-31T02:13:56.157Z,86.79
2023-03-31T02:14:56.126Z,84.95
2023-03-31T02:15:56.153Z,86.07
2023-03-31T02:16:56.067Z,85.46
2023-03-31T02:17:56.099Z,85.05
2023-03-31T02:18:56.019Z,86.28
2023-03-31T02:19:55.984Z,86.99
2023-03-31T02:20:55.954Z,87.10
2023-03-31T02:21:55.955Z,87.82
2023-03-31T02:22:55.913Z,87.82
2023-03-31T02:23:55.897Z,87.51
2023-03-31T02:24:55.854Z,87.30
2023-03-31T02:25:55.825Z,87.41
2023-03-31T02:26:55.802Z,88.02
2023-03-31T02:27:55.773Z,87.82
2023-03-31T02:28:55.736Z,88.74
2023-03-31T02:29:55.713Z,87.51
2023-03-31T02:30:55.681Z,87.55
2023-03-31T02:31:55.707Z,87.55
2023-03-31T02:32:55.691Z,87.20
2023-03-31T02:33:55.614Z,86.63
2023-03-31T02:34:55.571Z,87.45
2023-03-31T02:35:55.672Z,87.55
2023-03-31T02:36:55.517Z,87.34
2023-03-31T02:37:55.520Z,87.14
2023-03-31T02:38:55.462Z,86.83
2023-03-31T02:39:55.460Z,87.45
2023-03-31T02:40:55.407Z,87.55
2023-03-31T02:41:55.384Z,87.04
2023-03-31T02:42:55.355Z,87.34
2023-03-31T02:43:55.326Z,87.14
2023-03-31T02:44:55.299Z,86.93
2023-03-31T02:45:55.352Z,86.63
2023-03-31T02:46:55.242Z,87.24
2023-03-31T02:47:55.281Z,86.63
2023-03-31T02:48:55.188Z,86.63
2023-03-31T02:49:55.168Z,86.32
2023-03-31T02:50:55.133Z,86.73
2023-03-31T02:51:55.111Z,86.52
2023-03-31T02:52:55.079Z,86.52
2023-03-31T02:53:55.054Z,86.63
2023-03-31T02:54:55.024Z,86.73
2023-03-31T02:55:55.016Z,86.83
2023-03-31T02:56:54.990Z,86.73
2023-03-31T02:57:54.941Z,86.93
2023-03-31T02:58:54.929Z,87.28
2023-03-31T02:59:54.886Z,87.04
2023-03-31T03:00:54.922Z,86.22
2023-03-31T03:01:54.837Z,86.87
2023-03-31T03:02:54.869Z,86.77
2023-03-31T03:03:54.783Z,86.93
2023-03-31T03:04:54.752Z,86.46
2023-03-31T03:05:54.725Z,86.25
2023-03-31T03:06:54.696Z,86.25
2023-03-31T03:07:54.669Z,86.77
2023-03-31T03:08:54.637Z,87.49
2023-03-31T03:09:54.620Z,87.38
2023-03-31T03:10:54.589Z,87.28
2023-03-31T03:11:54.579Z,87.28
2023-03-31T03:12:54.536Z,87.49
2023-03-31T03:13:54.501Z,87.49
2023-03-31T03:14:54.471Z,87.70
2023-03-31T03:15:54.448Z,87.38
2023-03-31T03:16:54.451Z,87.49
2023-03-31T03:17:54.447Z,86.77
2023-03-31T03:18:54.361Z,87.49
2023-03-31T03:19:54.338Z,86.36
2023-03-31T03:20:54.313Z,87.76
2023-03-31T03:21:54.281Z,86.46
2023-03-31T03:22:54.258Z,86.66
2023-03-31T03:23:54.240Z,86.32
2023-03-31T03:24:54.207Z,86.36
2023-03-31T03:25:54.172Z,86.25
2023-03-31T03:26:54.140Z,86.25
2023-03-31T03:27:54.155Z,86.11
2023-03-31T03:28:54.084Z,86.32
2023-03-31T03:29:54.057Z,86.36
2023-03-31T03:30:54.030Z,86.11
2023-03-31T03:31:54.003Z,86.01
2023-03-31T03:32:54.003Z,85.91
2023-03-31T03:33:53.945Z,86.01
2023-03-31T03:34:53.918Z,86.11
2023-03-31T03:35:53.965Z,85.50
2023-03-31T03:36:53.875Z,85.91
2023-03-31T03:37:53.844Z,86.52
2023-03-31T03:38:53.812Z,85.91
2023-03-31T03:39:53.782Z,86.77
2023-03-31T03:40:53.755Z,85.85
2023-03-31T03:41:53.725Z,85.95
2023-03-31T03:42:53.698Z,86.25
2023-03-31T03:43:53.686Z,85.95
2023-03-31T03:44:53.643Z,86.36
2023-03-31T03:45:53.655Z,86.25
2023-03-31T03:46:53.586Z,85.50
2023-03-31T03:47:53.593Z,85.74
2023-03-31T03:48:53.549Z,84.88
2023-03-31T03:49:53.501Z,84.78
2023-03-31T03:50:53.481Z,85.09
2023-03-31T03:51:53.445Z,85.30
2023-03-31T03:52:53.417Z,85.03
2023-03-31T03:53:53.390Z,84.27
2023-03-31T03:54:53.360Z,84.82
2023-03-31T03:55:53.332Z,84.99
2023-03-31T03:56:53.317Z,84.92
2023-03-31T03:57:53.277Z,85.13
2023-03-31T03:58:53.251Z,84.82
2023-03-31T03:59:53.257Z,84.92
2023-03-31T04:00:53.194Z,83.80
2023-03-31T04:01:53.205Z,84.61
2023-03-31T04:02:53.197Z,84.82
2023-03-31T04:03:53.108Z,84.99
2023-03-31T04:04:53.112Z,84.82
2023-03-31T04:05:53.068Z,84.82
2023-03-31T04:06:53.022Z,83.90
2023-03-31T04:07:52.993Z,84.82
2023-03-31T04:08:52.968Z,84.52
2023-03-31T04:09:52.939Z,84.06
2023-03-31T04:10:52.911Z,83.86
2023-03-31T04:11:52.882Z,84.06
2023-03-31T04:12:52.857Z,84.37
2023-03-31T04:13:52.830Z,84.10
2023-03-31T04:14:52.808Z,83.65
2023-03-31T04:15:52.892Z,83.45
2023-03-31T04:16:52.746Z,83.34
2023-03-31T04:17:52.745Z,83.45
2023-03-31T04:18:52.702Z,83.55
2023-03-31T04:19:52.660Z,83.25
2023-03-31T04:20:52.631Z,82.42
2023-03-31T04:21:52.604Z,82.32
2023-03-31T04:22:52.577Z,81.87
2023-03-31T04:23:52.574Z,81.87
2023-03-31T04:24:52.552Z,81.29
2023-03-31T04:25:52.492Z,81.77
2023-03-31T04:26:52.471Z,82.42
2023-03-31T04:27:52.437Z,81.40
2023-03-31T04:28:52.414Z,81.05
2023-03-31T04:29:52.379Z,81.98
2023-03-31T04:30:52.353Z,81.77
2023-03-31T04:31:52.395Z,81.05
2023-03-31T04:32:52.319Z,80.85
2023-03-31T04:33:52.268Z,81.26
2023-03-31T04:34:52.242Z,81.77
2023-03-31T04:35:52.257Z,81.57
2023-03-31T04:36:52.193Z,81.81
2023-03-31T04:37:52.164Z,81.67
2023-03-31T04:38:52.929Z,81.77
2023-03-31T04:39:52.102Z,82.90
2023-03-31T04:40:52.085Z,81.98
2023-03-31T04:41:52.045Z,81.91
2023-03-31T04:42:52.019Z,82.08
2023-03-31T04:43:51.989Z,82.79
2023-03-31T04:44:51.964Z,82.93
2023-03-31T04:45:52.037Z,82.79
2023-03-31T04:46:51.913Z,82.83
2023-03-31T04:47:51.932Z,83.55
2023-03-31T04:48:51.850Z,84.06
2023-03-31T04:49:51.825Z,82.93
2023-03-31T04:50:51.797Z,83.34
2023-03-31T04:51:51.788Z,83.34
2023-03-31T04:52:51.759Z,83.86
2023-03-31T04:53:51.712Z,83.65
2023-03-31T04:54:51.684Z,83.04
2023-03-31T04:55:51.655Z,83.65
2023-03-31T04:56:51.644Z,83.45
2023-03-31T04:57:51.602Z,83.55
2023-03-31T04:58:51.575Z,83.59
2023-03-31T04:59:51.545Z,83.45
2023-03-31T05:00:51.547Z,82.87
2023-03-31T05:01:51.495Z,83.49
2023-03-31T05:02:51.541Z,83.45
2023-03-31T05:03:51.500Z,83.86
2023-03-31T05:04:51.413Z,84.17
2023-03-31T05:05:51.382Z,84.00
2023-03-31T05:06:51.360Z,84.00
2023-03-31T05:07:51.331Z,83.59
2023-03-31T05:08:51.305Z,83.39
2023-03-31T05:09:51.276Z,83.55
2023-03-31T05:10:51.249Z,83.49
2023-03-31T05:11:51.219Z,84.10
2023-03-31T05:12:51.200Z,83.49
2023-03-31T05:13:51.165Z,83.69
2023-03-31T05:14:51.149Z,83.07
2023-03-31T05:15:51.115Z,83.07
2023-03-31T05:16:51.105Z,82.87
2023-03-31T05:17:51.091Z,83.14
2023-03-31T05:18:51.033Z,82.93
2023-03-31T05:19:51.017Z,82.93
2023-03-31T05:20:50.973Z,82.32
2023-03-31T05:21:50.987Z,82.12
2023-03-31T05:22:50.932Z,82.12
2023-03-31T05:23:50.892Z,82.53
2023-03-31T05:24:50.871Z,81.81
2023-03-31T05:25:50.832Z,81.81
2023-03-31T05:26:50.809Z,81.20
2023-03-31T05:27:50.777Z,81.71
2023-03-31T05:28:50.749Z,81.26
2023-03-31T05:29:50.723Z,80.85
2023-03-31T05:30:50.696Z,80.95
2023-03-31T05:31:50.720Z,82.79
2023-03-31T05:32:50.680Z,82.08
2023-03-31T05:33:50.616Z,83.10
2023-03-31T05:34:52.186Z,80.85
2023-03-31T05:35:50.600Z,81.36
2023-03-31T05:36:50.543Z,80.44
2023-03-31T05:37:50.499Z,80.44
2023-03-31T05:38:50.475Z,80.74
2023-03-31T05:39:50.446Z,81.57
2023-03-31T05:40:50.418Z,81.46
2023-03-31T05:41:50.389Z,81.46
2023-03-31T05:42:50.363Z,81.36
2023-03-31T05:43:50.333Z,81.67
2023-03-31T05:44:50.305Z,79.82
2023-03-31T05:45:50.295Z,80.95
2023-03-31T05:46:50.279Z,80.54
2023-03-31T05:47:50.237Z,79.72
2023-03-31T05:48:50.194Z,79.07
2023-03-31T05:49:50.168Z,77.53
2023-03-31T05:50:50.141Z,78.45
2023-03-31T05:51:50.134Z,78.56
2023-03-31T05:52:50.087Z,78.21
2023-03-31T05:53:50.066Z,78.42
2023-03-31T05:54:50.043Z,78.01
2023-03-31T05:55:50.004Z,78.83
2023-03-31T05:56:50.008Z,78.93
2023-03-31T05:57:49.942Z,79.03
2023-03-31T05:58:49.915Z,79.96
2023-03-31T05:59:49.896Z,79.85
2023-03-31T06:00:49.881Z,78.59
2023-03-31T06:01:49.940Z,79.00
2023-03-31T06:02:49.883Z,78.49
2023-03-31T06:03:49.792Z,77.56
2023-03-31T06:04:49.754Z,78.89
2023-03-31T06:05:49.722Z,79.27
2023-03-31T06:06:49.695Z,78.96
2023-03-31T06:07:49.695Z,77.46
2023-03-31T06:08:49.641Z,76.43
2023-03-31T06:09:49.619Z,76.09
2023-03-31T06:10:49.587Z,76.20
2023-03-31T06:11:50.566Z,75.99
2023-03-31T06:12:49.531Z,76.61
2023-03-31T06:13:49.516Z,76.16
2023-03-31T06:14:49.476Z,75.27
2023-03-31T06:15:49.462Z,75.48
2023-03-31T06:16:49.424Z,76.37
2023-03-31T06:17:49.420Z,75.48
2023-03-31T06:18:49.378Z,76.16
2023-03-31T06:19:49.340Z,75.79
2023-03-31T06:20:49.315Z,74.73
2023-03-31T06:21:49.317Z,75.45
2023-03-31T06:22:49.268Z,75.65
2023-03-31T06:23:49.248Z,75.24
2023-03-31T06:24:49.201Z,75.45
2023-03-31T06:25:51.747Z,76.26
2023-03-31T06:26:49.897Z,75.92
2023-03-31T06:27:49.141Z,76.03
2023-03-31T06:28:49.096Z,76.64
2023-03-31T06:29:49.081Z,76.94
2023-03-31T06:30:49.038Z,76.74
2023-03-31T06:31:49.081Z,76.84
2023-03-31T06:32:49.008Z,77.04
2023-03-31T06:33:48.952Z,77.56
2023-03-31T06:34:48.926Z,76.64
2023-03-31T06:35:49.120Z,76.74
2023-03-31T06:36:48.888Z,76.60
2023-03-31T06:37:48.842Z,76.81
2023-03-31T06:38:48.816Z,76.50
2023-03-31T06:39:48.807Z,76.97
2023-03-31T06:40:48.763Z,75.95
2023-03-31T06:41:48.744Z,76.67
2023-03-31T06:42:48.713Z,76.26
2023-03-31T06:43:48.678Z,76.16
2023-03-31T06:44:48.656Z,76.12
2023-03-31T06:45:48.664Z,76.06
2023-03-31T06:46:48.698Z,76.32
2023-03-31T06:47:48.620Z,76.77
2023-03-31T06:48:48.678Z,76.97
2023-03-31T06:49:48.528Z,76.73
2023-03-31T06:50:48.493Z,76.53
2023-03-31T06:51:48.461Z,76.73
2023-03-31T06:52:48.445Z,76.73
2023-03-31T06:53:48.413Z,77.25
2023-03-31T06:54:48.381Z,76.53
2023-03-31T06:55:48.384Z,76.32
2023-03-31T06:56:48.350Z,76.12
2023-03-31T06:57:48.299Z,75.57
2023-03-31T06:58:48.271Z,74.86
2023-03-31T06:59:48.244Z,75.27
2023-03-31T07:00:48.220Z,74.96
2023-03-31T07:01:48.326Z,74.76
2023-03-31T07:02:48.211Z,74.76
2023-03-31T07:03:48.190Z,73.74
2023-03-31T07:04:48.108Z,74.45
2023-03-31T07:05:48.079Z,74.52
2023-03-31T07:06:48.057Z,73.50
2023-03-31T07:07:48.028Z,72.99
2023-03-31T07:08:48.002Z,72.79
2023-03-31T07:09:47.972Z,72.38
2023-03-31T07:10:47.945Z,71.53
2023-03-31T07:11:47.940Z,70.72
2023-03-31T07:12:47.888Z,70.41
2023-03-31T07:13:47.862Z,69.46
2023-03-31T07:14:47.844Z,68.65
2023-03-31T07:15:47.935Z,68.85
2023-03-31T07:16:47.831Z,66.27
2023-03-31T07:17:47.788Z,66.17
2023-03-31T07:18:47.731Z,65.73
2023-03-31T07:19:47.700Z,65.83
2023-03-31T07:20:47.678Z,65.33
2023-03-31T07:21:47.646Z,65.22
2023-03-31T07:22:47.632Z,64.75
2023-03-31T07:23:47.595Z,64.95
2023-03-31T07:24:47.569Z,63.49
2023-03-31T07:25:47.544Z,64.92
2023-03-31T07:26:47.509Z,64.92
2023-03-31T07:27:47.508Z,64.72
2023-03-31T07:28:47.457Z,64.61
2023-03-31T07:29:47.436Z,65.02
2023-03-31T07:30:47.405Z,64.81
2023-03-31T07:31:47.419Z,65.02
2023-03-31T07:32:47.410Z,65.25
2023-03-31T07:33:47.335Z,65.77
2023-03-31T07:34:47.295Z,65.12
2023-03-31T07:35:54.029Z,65.12
2023-03-31T07:36:47.271Z,65.63
2023-03-31T07:37:47.216Z,66.04
2023-03-31T07:38:47.187Z,65.53
2023-03-31T07:39:47.160Z,66.78
2023-03-31T07:40:55.651Z,66.44
2023-03-31T07:41:47.107Z,66.85
2023-03-31T07:42:49.181Z,65.73
2023-03-31T07:43:47.098Z,65.73
2023-03-31T07:44:47.031Z,65.50
2023-03-31T07:45:47.086Z,65.80
2023-03-31T07:46:46.989Z,65.60
2023-03-31T07:47:46.982Z,65.80
2023-03-31T07:48:46.928Z,65.91
2023-03-31T07:49:46.894Z,66.82
2023-03-31T07:50:46.869Z,66.55
2023-03-31T07:51:46.843Z,68.04
2023-03-31T07:52:47.279Z,67.83
2023-03-31T07:53:46.789Z,67.77
2023-03-31T07:54:46.761Z,68.68
2023-03-31T07:55:46.740Z,68.27
2023-03-31T07:56:46.774Z,69.29
2023-03-31T07:57:46.687Z,68.99
2023-03-31T07:58:46.658Z,68.38
2023-03-31T07:59:46.647Z,68.79
2023-03-31T08:00:46.607Z,69.29
2023-03-31T08:01:46.599Z,69.49
2023-03-31T08:02:46.582Z,69.29
2023-03-31T08:03:46.615Z,68.88
2023-03-31T08:04:46.497Z,69.49
2023-03-31T08:05:46.469Z,69.40
2023-03-31T08:06:46.444Z,68.68
2023-03-31T08:07:46.429Z,69.09
2023-03-31T08:08:46.403Z,68.68
2023-03-31T08:09:46.360Z,69.60
2023-03-31T08:10:46.333Z,69.49
2023-03-31T08:11:46.988Z,69.60
2023-03-31T08:12:46.288Z,69.49
2023-03-31T08:13:46.255Z,69.49
2023-03-31T08:14:46.234Z,69.49
2023-03-31T08:15:46.254Z,69.49
2023-03-31T08:16:46.234Z,69.16
2023-03-31T08:17:46.212Z,69.67
2023-03-31T08:18:46.124Z,69.16
2023-03-31T08:19:46.099Z,68.75
2023-03-31T08:20:47.744Z,68.82
2023-03-31T08:21:46.038Z,68.82
2023-03-31T08:22:46.018Z,68.82
2023-03-31T08:23:45.988Z,68.99
2023-03-31T08:24:45.966Z,68.08
2023-03-31T08:25:45.951Z,67.97
2023-03-31T08:26:45.909Z,68.49
2023-03-31T08:27:45.889Z,68.18
2023-03-31T08:28:45.863Z,67.84
2023-03-31T08:29:45.839Z,67.74
2023-03-31T08:30:45.814Z,66.93
2023-03-31T08:31:45.821Z,67.27
2023-03-31T08:32:45.760Z,66.93
2023-03-31T08:33:45.726Z,67.64
2023-03-31T08:34:45.696Z,69.37
2023-03-31T08:35:45.713Z,66.83
2023-03-31T08:36:45.660Z,67.24
2023-03-31T08:37:45.620Z,67.03
2023-03-31T08:38:45.606Z,66.12
2023-03-31T08:39:45.566Z,67.03
2023-03-31T08:40:45.549Z,67.13
2023-03-31T08:41:45.517Z,66.60
2023-03-31T08:42:45.488Z,66.69
2023-03-31T08:43:45.466Z,66.90
2023-03-31T08:44:45.436Z,66.72
2023-03-31T08:45:45.464Z,68.15
2023-03-31T08:46:45.393Z,68.66
2023-03-31T08:47:45.437Z,68.76
2023-03-31T08:48:45.453Z,69.13
2023-03-31T08:49:45.309Z,68.66
2023-03-31T08:50:45.282Z,68.76
2023-03-31T08:51:45.264Z,69.40
2023-03-31T08:52:45.231Z,68.99
2023-03-31T08:53:45.221Z,69.50
2023-03-31T08:54:45.181Z,68.99
2023-03-31T08:55:45.155Z,69.40
2023-03-31T08:56:45.166Z,69.81
2023-03-31T08:57:45.595Z,69.81
2023-03-31T08:58:45.096Z,68.89
2023-03-31T08:59:45.056Z,68.28
2023-03-31T09:00:45.026Z,67.77
2023-03-31T09:01:55.318Z,67.47
2023-03-31T09:02:45.109Z,67.64
2023-03-31T09:03:45.091Z,66.83
2023-03-31T09:04:44.939Z,66.83
2023-03-31T09:05:58.852Z,66.32
2023-03-31T09:06:44.876Z,67.10
2023-03-31T09:07:44.850Z,65.17
2023-03-31T09:08:44.834Z,65.27
2023-03-31T09:09:44.799Z,64.76
2023-03-31T09:10:44.772Z,65.27
2023-03-31T09:11:44.754Z,65.95
2023-03-31T09:12:44.734Z,65.75
2023-03-31T09:13:44.701Z,65.17
2023-03-31T09:14:44.672Z,65.91
2023-03-31T09:15:44.645Z,65.91
2023-03-31T09:16:44.675Z,66.86
2023-03-31T09:17:44.634Z,66.96
2023-03-31T09:18:44.571Z,66.76
2023-03-31T09:19:44.678Z,65.84
2023-03-31T09:20:44.527Z,66.55
2023-03-31T09:21:44.504Z,66.35
2023-03-31T09:22:44.470Z,67.06
2023-03-31T09:23:44.450Z,67.03
2023-03-31T09:24:44.425Z,66.76
2023-03-31T09:25:44.397Z,66.58
2023-03-31T09:26:44.372Z,67.47
2023-03-31T09:27:44.370Z,69.02
2023-03-31T09:28:44.320Z,68.11
2023-03-31T09:29:44.313Z,67.71
2023-03-31T09:30:44.268Z,68.01
2023-03-31T09:31:44.257Z,67.30
2023-03-31T09:32:44.298Z,66.49
2023-03-31T09:33:44.192Z,65.03
2023-03-31T09:34:44.166Z,65.71
2023-03-31T09:35:46.308Z,65.00
2023-03-31T09:36:44.117Z,65.27
2023-03-31T09:37:44.099Z,64.43
2023-03-31T09:38:44.064Z,63.92
2023-03-31T09:39:44.039Z,63.21
2023-03-31T09:40:44.013Z,64.73
2023-03-31T09:41:43.988Z,64.73
2023-03-31T09:42:43.961Z,64.46
2023-03-31T09:43:43.938Z,64.56
2023-03-31T09:44:43.914Z,65.17
2023-03-31T09:45:47.675Z,65.95
2023-03-31T09:46:43.890Z,64.40
2023-03-31T09:47:43.864Z,63.11
2023-03-31T09:48:43.810Z,64.13
2023-03-31T09:49:53.628Z,64.13
2023-03-31T09:50:43.761Z,64.23
2023-03-31T09:51:43.754Z,63.08
2023-03-31T09:52:43.716Z,63.29
2023-03-31T09:53:43.709Z,57.40
2023-03-31T09:54:43.663Z,58.62
2023-03-31T09:55:43.648Z,59.70
2023-03-31T09:56:43.677Z,60.72
2023-03-31T09:57:43.594Z,63.76
2023-03-31T09:58:43.560Z,65.42
2023-03-31T09:59:43.534Z,67.34
2023-03-31T10:00:43.518Z,67.65
2023-03-31T10:01:43.515Z,66.83
2023-03-31T10:02:43.496Z,67.88
2023-03-31T10:03:43.440Z,68.19
2023-03-31T10:04:43.409Z,66.46
2023-03-31T10:05:43.412Z,66.90
2023-03-31T10:06:43.361Z,67.10
2023-03-31T10:07:43.358Z,65.99
2023-03-31T10:08:43.313Z,66.08
2023-03-31T10:09:43.285Z,65.48
2023-03-31T10:10:43.262Z,65.48
2023-03-31T10:11:43.235Z,64.76
2023-03-31T10:12:43.209Z,64.87
2023-03-31T10:13:43.188Z,64.70
2023-03-31T10:14:43.166Z,64.70
2023-03-31T10:15:43.211Z,65.00
2023-03-31T10:16:43.112Z,64.56
2023-03-31T10:17:53.879Z,64.59
2023-03-31T10:18:43.056Z,64.87
2023-03-31T10:19:43.041Z,63.88
2023-03-31T10:20:43.010Z,63.07
2023-03-31T10:21:42.998Z,64.18
2023-03-31T10:22:42.967Z,64.79
2023-03-31T10:23:42.961Z,64.49
2023-03-31T10:24:42.949Z,64.87
2023-03-31T10:25:42.886Z,64.23
2023-03-31T10:26:42.859Z,63.69
2023-03-31T10:27:42.837Z,64.53
2023-03-31T10:28:42.807Z,64.88
2023-03-31T10:29:42.785Z,63.26
2023-03-31T10:30:42.756Z,63.79
2023-03-31T10:31:42.772Z,63.52
2023-03-31T10:32:42.796Z,63.49
2023-03-31T10:33:42.758Z,63.49
2023-03-31T10:34:42.671Z,63.59
2023-03-31T10:35:42.639Z,63.08
2023-03-31T10:36:42.606Z,63.92
2023-03-31T10:37:42.585Z,64.73
2023-03-31T10:38:42.619Z,64.94
2023-03-31T10:39:42.557Z,64.70
2023-03-31T10:40:42.523Z,64.70
2023-03-31T10:41:42.485Z,64.73
2023-03-31T10:42:42.456Z,64.94
2023-03-31T10:43:42.433Z,64.46
2023-03-31T10:44:42.409Z,65.41
2023-03-31T10:45:42.387Z,65.84
2023-03-31T10:46:42.466Z,66.05
2023-03-31T10:47:42.346Z,68.72
2023-03-31T10:48:42.305Z,69.94
2023-03-31T10:49:42.283Z,73.84
2023-03-31T10:50:42.259Z,74.69
2023-03-31T10:51:42.232Z,75.95
2023-03-31T10:52:42.206Z,74.65
2023-03-31T10:53:42.203Z,73.36
2023-03-31T10:54:42.154Z,71.43
2023-03-31T10:55:42.152Z,73.97
2023-03-31T10:56:42.133Z,74.28
2023-03-31T10:57:42.130Z,70.75
2023-03-31T10:58:47.015Z,68.98
2023-03-31T10:59:42.047Z,69.80
2023-03-31T11:00:41.999Z,69.70
2023-03-31T11:01:42.068Z,69.49
2023-03-31T11:02:41.980Z,69.53
2023-03-31T11:03:42.098Z,72.41
2023-03-31T11:04:41.900Z,78.81
2023-03-31T11:05:41.871Z,80.62
2023-03-31T11:06:41.839Z,86.18
2023-03-31T11:07:41.828Z,87.35
2023-03-31T11:08:41.788Z,88.17
2023-03-31T11:09:41.763Z,86.53
2023-03-31T11:10:41.731Z,85.88
2023-03-31T11:11:41.727Z,81.24
2023-03-31T11:12:41.689Z,80.79
2023-03-31T11:13:41.661Z,79.52
2023-03-31T11:14:41.645Z,78.27
2023-03-31T11:15:41.634Z,79.55
2023-03-31T11:16:41.609Z,79.14
2023-03-31T11:17:41.552Z,77.37
2023-03-31T11:18:41.527Z,72.48
2023-03-31T11:19:41.492Z,74.58
2023-03-31T11:20:41.458Z,72.86
2023-03-31T11:21:41.446Z,71.33
2023-03-31T11:22:41.403Z,70.17
2023-03-31T11:23:41.376Z,70.68
2023-03-31T11:24:41.362Z,69.19
2023-03-31T11:25:41.319Z,68.98
2023-03-31T11:26:41.295Z,67.25
2023-03-31T11:27:41.306Z,66.44
2023-03-31T11:28:41.249Z,68.07
2023-03-31T11:29:41.225Z,66.00
2023-03-31T11:30:41.184Z,67.52
2023-03-31T11:31:41.186Z,65.72
2023-03-31T11:32:41.146Z,65.80
2023-03-31T11:33:41.114Z,64.78
2023-03-31T11:34:41.072Z,63.35
2023-03-31T11:35:41.069Z,63.42
2023-03-31T11:36:41.015Z,65.56
2023-03-31T11:37:40.989Z,66.00
2023-03-31T11:38:40.963Z,65.05
2023-03-31T11:39:40.941Z,65.36
2023-03-31T11:40:40.904Z,61.29
2023-03-31T11:41:40.878Z,65.22
2023-03-31T11:42:40.861Z,61.36
2023-03-31T11:43:40.854Z,64.31
2023-03-31T11:44:40.797Z,59.39
2023-03-31T11:45:40.791Z,61.43
2023-03-31T11:46:40.821Z,59.27
2023-03-31T11:47:40.725Z,58.76
2023-03-31T11:48:40.706Z,56.90
2023-03-31T11:49:40.659Z,60.97
2023-03-31T11:50:40.630Z,58.83
2023-03-31T11:51:40.605Z,56.16
2023-03-31T11:52:40.595Z,58.29
2023-03-31T11:53:40.557Z,56.98
2023-03-31T11:54:40.541Z,58.29
2023-03-31T11:55:40.499Z,58.02
2023-03-31T11:56:40.477Z,55.68
2023-03-31T11:57:40.470Z,54.03
2023-03-31T11:58:40.416Z,53.63
2023-03-31T11:59:40.419Z,53.52
2023-03-31T12:00:40.367Z,54.03
2023-03-31T12:01:40.338Z,53.63
2023-03-31T12:02:40.350Z,54.44
2023-03-31T12:03:40.310Z,49.76
2023-03-31T12:04:40.259Z,49.76
2023-03-31T12:05:40.266Z,49.36
2023-03-31T12:06:40.205Z,49.05
2023-03-31T12:07:40.179Z,50.65
2023-03-31T12:08:40.156Z,51.79
2023-03-31T12:09:40.130Z,52.61
2023-03-31T12:10:40.100Z,52.84
2023-03-31T12:11:40.076Z,50.78
2023-03-31T12:12:40.048Z,51.39
2023-03-31T12:13:40.019Z,53.24
2023-03-31T12:14:39.995Z,57.54
2023-03-31T12:15:40.014Z,60.85
2023-03-31T12:16:40.036Z,62.54
2023-03-31T12:17:39.974Z,62.18
2023-03-31T12:18:39.894Z,61.78
2023-03-31T12:19:39.868Z,61.30
2023-03-31T12:20:39.837Z,61.73
2023-03-31T12:21:39.809Z,62.24
2023-03-31T12:22:39.782Z,63.60
2023-03-31T12:23:39.754Z,65.03
2023-03-31T12:24:39.744Z,66.18
2023-03-31T12:25:39.701Z,73.10
2023-03-31T12:26:39.685Z,80.02
2023-03-31T12:27:39.664Z,81.59
2023-03-31T12:28:39.623Z,81.59
2023-03-31T12:29:39.599Z,77.70
2023-03-31T12:30:39.574Z,76.17
2023-03-31T12:31:39.637Z,78.01
2023-03-31T12:32:39.533Z,78.93
2023-03-31T12:33:39.494Z,76.57
2023-03-31T12:34:39.457Z,75.62
2023-03-31T12:35:39.512Z,75.52
2023-03-31T12:36:39.405Z,74.15
2023-03-31T12:37:39.383Z,72.82
2023-03-31T12:38:39.349Z,73.40
2023-03-31T12:39:39.324Z,73.27
2023-03-31T12:40:39.293Z,70.00
2023-03-31T12:41:39.271Z,69.69
2023-03-31T12:42:39.238Z,68.05
2023-03-31T12:43:39.208Z,67.57
2023-03-31T12:44:39.184Z,69.18
2023-03-31T12:45:39.157Z,67.65
2023-03-31T12:46:39.148Z,70.30
2023-03-31T12:47:39.130Z,67.61
2023-03-31T12:48:39.073Z,69.15
2023-03-31T12:49:39.045Z,67.21
2023-03-31T12:50:39.017Z,67.92
2023-03-31T12:51:38.993Z,68.80
2023-03-31T12:52:38.963Z,66.36